RKTN/TAE METAR and TAF weather

Enter ICAO airport designator
Station Type Date Time Source
RKTN METAR 2020/09/25 18:00 UTC NOAA

RKTN 251800Z 10001KT CAVOK 16/12 Q1013


Station Type Date Time Source
RKTN Decoded METAR 2020/09/25 18:00 UTC NOAA

Taegu Ab, Korea, South (RKTN) 35-54N 128-39E 37M
Sep 25, 2020 - 02:00 PM EDT / 2020.09.25 1800 UTC
Wind: from the E (100 degrees) at 1 MPH (1 KT):0
Visibility: greater than 7 mile(s):0
Temperature: 60 F (16 C)
Dew Point: 53 F (12 C)
Relative Humidity: 77%
Pressure (altimeter): 29.91 in. Hg (1013 hPa)
ob: RKTN 251800Z 10001KT CAVOK 16/12 Q1013
cycle: 18

Station Type Date Time Source
RKTN TAF 2020/09/25 18:09 UTC NOAA

TAF RKTN 251700Z 2518/2624 12006KT 9999 SCT040 TN13/2521Z TX24/2606Z
BECMG 2523/2524 BKN040
BECMG 2511/2512 SCT040

Example: see airport list